Time;durP1;ratioP1;P1;durP2;ratioP2;P2;SDS_P1;SDS_P2;PMS_P1;PMS_P2;Temp;Humidity;BMP_temperature;BMP_pressure;BME280_temperature;BME280_humidity;BME280_pressure;Samples;Min_cycle;Max_cycle;Signal;HPM_P1;HPM_P2
2022/10/13 00:01:25;;;;;;;9.10;3.33;;;;;;;27.93;30.06;101279.03;5035399;28;20073;-85
2022/10/13 00:03:55;;;;;;;8.63;3.40;;;;;;;27.86;30.20;101270.41;5042744;28;20053;-81
2022/10/13 00:06:26;;;;;;;8.07;3.70;;;;;;;27.81;30.35;101272.31;5036796;28;20037;-83
2022/10/13 00:08:55;;;;;;;7.80;3.38;;;;;;;27.74;30.18;101273.41;5037175;28;20483;-85
2022/10/13 00:11:25;;;;;;;8.05;3.33;;;;;;;27.70;29.68;101272.69;5039224;28;21203;-82
2022/10/13 00:13:57;;;;;;;5.78;3.25;;;;;;;27.66;31.13;101275.50;5038190;28;20041;-80
2022/10/13 00:16:25;;;;;;;8.18;3.38;;;;;;;27.57;30.87;101264.22;5042082;28;20052;-83
2022/10/13 00:18:56;;;;;;;10.63;3.60;;;;;;;27.53;31.08;101264.38;5040727;28;20049;-82
2022/10/13 00:21:27;;;;;;;10.35;3.67;;;;;;;27.48;31.09;101261.88;5041306;28;20052;-83
2022/10/13 00:23:56;;;;;;;7.70;3.43;;;;;;;27.43;31.44;101257.66;5044031;28;20498;-83
2022/10/13 00:26:26;;;;;;;9.52;3.55;;;;;;;27.38;31.20;101264.91;5039961;28;20044;-84
2022/10/13 00:28:56;;;;;;;12.77;3.65;;;;;;;27.31;31.75;101267.75;5044301;28;20108;-82
2022/10/13 00:31:26;;;;;;;8.10;3.35;;;;;;;27.23;31.19;101256.50;5036628;28;20045;-83
2022/10/13 00:33:58;;;;;;;10.27;3.78;;;;;;;27.15;32.06;101261.16;5039938;28;20120;-85
2022/10/13 00:36:36;;;;;;;9.88;3.92;;;;;;;27.05;32.06;101263.25;5040959;28;20056;-83
2022/10/13 00:39:05;;;;;;;5.90;3.42;;;;;;;26.95;32.01;101262.63;5040267;28;20052;-85
2022/10/13 00:41:33;;;;;;;8.57;3.78;;;;;;;26.84;33.20;101266.53;5044179;28;20041;-83
2022/10/13 00:44:04;;;;;;;8.13;3.80;;;;;;;26.68;32.98;101255.50;5040263;28;20061;-83
2022/10/13 00:46:41;;;;;;;8.27;3.50;;;;;;;26.63;33.37;101260.94;5046322;28;20106;-81
2022/10/13 00:49:14;;;;;;;11.50;3.72;;;;;;;26.52;33.59;101261.22;5035031;28;20064;-82
2022/10/13 00:51:47;;;;;;;5.65;3.00;;;;;;;26.40;33.80;101269.53;5044090;28;20053;-79
2022/10/13 00:54:18;;;;;;;5.90;3.22;;;;;;;26.32;33.77;101260.94;5041883;28;20053;-83
2022/10/13 00:56:48;;;;;;;10.75;3.45;;;;;;;26.22;34.15;101268.25;5039235;28;20455;-83
2022/10/13 00:59:22;;;;;;;5.53;3.38;;;;;;;26.06;34.38;101256.34;5036938;28;20045;-80
2022/10/13 01:01:51;;;;;;;7.82;3.30;;;;;;;25.99;34.62;101270.69;5045628;28;20045;-78
2022/10/13 01:04:24;;;;;;;5.93;3.03;;;;;;;25.88;35.20;101271.84;5037257;28;20081;-78
2022/10/13 01:06:53;;;;;;;6.10;3.13;;;;;;;25.79;35.21;101274.66;5046557;28;20055;-77
2022/10/13 01:09:22;;;;;;;7.07;3.20;;;;;;;25.69;35.59;101268.75;5037254;28;20419;-78
2022/10/13 01:12:03;;;;;;;6.43;3.15;;;;;;;25.61;36.48;101273.38;5032077;28;20182;-76
2022/10/13 01:14:37;;;;;;;7.78;3.33;;;;;;;25.48;36.68;101274.59;5041469;28;20410;-78
2022/10/13 01:17:15;;;;;;;10.15;3.75;;;;;;;25.33;36.87;101261.69;5041973;28;20045;-77
2022/10/13 01:20:18;;;;;;;7.70;3.20;;;;;;;25.16;37.32;101268.22;5040459;28;20077;-77
2022/10/13 01:23:07;;;;;;;6.28;3.42;;;;;;;24.97;38.31;101267.78;5038643;28;20052;-77
2022/10/13 01:25:53;;;;;;;6.88;3.60;;;;;;;24.82;38.45;101268.97;5037993;28;20175;-77
2022/10/13 01:28:49;;;;;;;10.15;4.35;;;;;;;24.68;37.93;101273.69;5039858;28;20076;-77
2022/10/13 01:31:26;;;;;;;5.93;3.90;;;;;;;24.54;38.08;101270.47;5037225;28;20052;-78
2022/10/13 01:34:03;;;;;;;11.80;4.07;;;;;;;24.37;39.46;101271.66;5040288;28;20183;-77
2022/10/13 01:36:38;;;;;;;8.82;4.18;;;;;;;24.17;40.29;101268.50;5033330;28;20046;-76
2022/10/13 01:39:15;;;;;;;8.02;3.92;;;;;;;24.04;40.24;101259.91;5040173;28;20054;-78
2022/10/13 01:41:47;;;;;;;10.10;4.75;;;;;;;23.91;41.02;101275.13;5037841;28;20049;-78
2022/10/13 01:44:22;;;;;;;8.68;4.13;;;;;;;23.79;40.76;101270.06;5033969;28;20045;-78
2022/10/13 01:47:01;;;;;;;8.10;4.80;;;;;;;23.67;41.15;101264.97;5039693;28;20142;-78
2022/10/13 01:49:34;;;;;;;8.98;4.80;;;;;;;23.55;41.45;101261.63;5039998;28;20490;-79
2022/10/13 01:52:07;;;;;;;7.47;4.45;;;;;;;23.43;42.19;101267.06;5037620;28;20434;-80
2022/10/13 01:54:35;;;;;;;10.50;5.03;;;;;;;23.34;42.10;101259.28;5038628;28;20064;-78
2022/10/13 01:57:04;;;;;;;14.10;5.00;;;;;;;23.24;42.23;101269.13;5039456;28;20542;-85
2022/10/13 01:59:37;;;;;;;13.48;4.63;;;;;;;23.15;42.80;101266.63;5044486;28;20048;-84
2022/10/13 02:02:16;;;;;;;16.92;4.88;;;;;;;23.05;43.11;101275.59;5042835;28;20072;-72
2022/10/13 02:04:54;;;;;;;11.25;4.53;;;;;;;22.94;43.74;101273.06;5041651;28;20057;-75
2022/10/13 02:07:31;;;;;;;8.65;4.68;;;;;;;22.84;43.43;101271.41;5041842;28;20479;-74
2022/10/13 02:10:07;;;;;;;7.93;5.03;;;;;;;22.71;43.50;101282.13;5043723;28;20060;-80
2022/10/13 02:12:41;;;;;;;18.35;6.10;;;;;;;22.58;44.20;101273.47;5038096;28;20506;-73
2022/10/13 02:15:13;;;;;;;10.75;5.32;;;;;;;22.47;44.55;101279.78;5045163;28;21286;-81
2022/10/13 02:17:43;;;;;;;9.75;5.18;;;;;;;22.30;45.35;101275.56;5041888;28;20462;-81
2022/10/13 02:20:13;;;;;;;13.07;5.55;;;;;;;22.17;45.99;101276.53;5043916;28;20139;-83
2022/10/13 02:22:46;;;;;;;11.15;5.20;;;;;;;22.04;46.20;101282.84;5048348;28;20556;-81
2022/10/13 02:25:14;;;;;;;12.60;4.88;;;;;;;21.94;46.91;101288.22;5046411;28;20049;-78
2022/10/13 02:27:43;;;;;;;11.07;5.22;;;;;;;21.83;47.13;101292.69;5041149;28;20530;-78
2022/10/13 02:30:22;;;;;;;11.55;5.28;;;;;;;21.73;47.50;101291.88;5040713;28;20525;-80
2022/10/13 02:32:53;;;;;;;10.90;5.38;;;;;;;21.64;47.30;101296.34;5046325;28;20107;-81
2022/10/13 02:35:22;;;;;;;9.43;4.72;;;;;;;21.53;47.68;101301.69;5044856;28;20058;-82
2022/10/13 02:37:51;;;;;;;10.75;5.47;;;;;;;21.45;47.62;101301.75;5040868;28;20056;-80
2022/10/13 02:40:19;;;;;;;9.80;5.13;;;;;;;21.32;48.10;101300.91;5050015;28;20056;-83
2022/10/13 02:42:48;;;;;;;12.98;5.20;;;;;;;21.10;48.83;101287.03;5039626;28;20053;-79
2022/10/13 02:45:17;;;;;;;11.32;4.85;;;;;;;21.09;49.18;101300.19;5039526;28;20083;-82
2022/10/13 02:47:46;;;;;;;16.30;6.32;;;;;;;21.00;49.09;101295.81;5022558;28;20092;-78
2022/10/13 02:50:16;;;;;;;12.95;4.72;;;;;;;20.89;49.61;101295.00;5020637;28;20050;-80
2022/10/13 02:52:45;;;;;;;13.00;4.88;;;;;;;20.81;49.69;101300.31;5022372;28;20624;-72
2022/10/13 02:55:14;;;;;;;13.02;4.90;;;;;;;20.70;49.84;101297.72;5021965;28;20463;-73
2022/10/13 02:57:42;;;;;;;13.30;4.88;;;;;;;20.60;51.43;101297.78;5021892;28;20474;-72
2022/10/13 03:00:12;;;;;;;12.57;4.53;;;;;;;20.49;50.85;101295.13;5023154;28;20451;-71
2022/10/13 03:02:41;;;;;;;8.88;4.38;;;;;;;20.41;50.92;101303.03;5018709;28;20496;-72
2022/10/13 03:05:11;;;;;;;14.40;5.30;;;;;;;20.34;50.03;101313.56;5022179;28;20053;-72
2022/10/13 03:07:41;;;;;;;11.85;4.60;;;;;;;20.25;51.42;101315.34;5022502;28;20050;-73
2022/10/13 03:10:10;;;;;;;10.40;4.65;;;;;;;20.18;50.29;101315.34;5024908;28;20046;-77
2022/10/13 03:12:39;;;;;;;7.10;4.07;;;;;;;20.10;51.65;101315.34;5020903;28;20049;-77
2022/10/13 03:15:08;;;;;;;9.98;4.10;;;;;;;20.04;51.37;101311.00;5021494;28;20507;-80
2022/10/13 03:17:37;;;;;;;15.27;5.38;;;;;;;19.96;51.00;101317.13;5025090;28;20096;-78
2022/10/13 03:20:07;;;;;;;11.80;4.43;;;;;;;19.86;50.34;101313.63;5016981;28;20538;-81
2022/10/13 03:22:35;;;;;;;13.85;4.82;;;;;;;19.80;50.97;101317.09;5016656;28;20100;-77
2022/10/13 03:25:06;;;;;;;12.32;4.88;;;;;;;19.73;50.65;101325.84;5024510;28;20041;-78
2022/10/13 03:27:35;;;;;;;11.68;4.72;;;;;;;19.64;50.75;101316.19;5028897;28;20155;-80
2022/10/13 03:30:04;;;;;;;11.77;4.90;;;;;;;19.57;50.76;101319.69;5020584;28;20194;-81
2022/10/13 03:32:32;;;;;;;16.17;5.00;;;;;;;19.49;51.31;101315.28;5020574;28;20137;-78
2022/10/13 03:35:01;;;;;;;10.32;4.55;;;;;;;19.32;51.67;101308.25;5019053;28;20050;-78
2022/10/13 03:37:31;;;;;;;11.45;4.85;;;;;;;19.27;52.05;101314.38;5020042;28;20050;-77
2022/10/13 03:39:59;;;;;;;11.73;5.25;;;;;;;19.16;52.34;101312.59;5017745;28;20539;-78
2022/10/13 03:42:30;;;;;;;12.60;4.78;;;;;;;19.07;52.71;101311.69;5025023;28;20048;-78
2022/10/13 03:44:58;;;;;;;11.25;3.90;;;;;;;19.01;53.14;101315.16;5027748;28;20670;-78
2022/10/13 03:47:27;;;;;;;16.42;4.93;;;;;;;18.95;52.51;101312.53;5040738;28;20542;-78
2022/10/13 03:49:56;;;;;;;14.10;3.92;;;;;;;18.89;53.24;101320.38;5044427;28;20099;-77
2022/10/13 03:52:24;;;;;;;14.63;4.80;;;;;;;18.81;53.53;101325.59;5040414;28;20049;-79
2022/10/13 03:54:53;;;;;;;15.63;5.30;;;;;;;18.75;53.19;101329.00;5040311;28;20057;-80
2022/10/13 03:57:22;;;;;;;14.93;5.10;;;;;;;18.70;54.81;101332.47;5039408;28;20057;-78
2022/10/13 03:59:54;;;;;;;13.98;4.72;;;;;;;18.63;56.54;101335.06;5039160;28;20045;-76
2022/10/13 04:02:22;;;;;;;;;;;;;;;18.53;56.81;101329.75;5051337;28;20045;-78
2022/10/13 04:04:51;;;;;;;10.32;4.80;;;;;;;18.47;56.55;101327.09;5042033;28;20004;-77
2022/10/13 04:07:19;;;;;;;10.20;4.30;;;;;;;18.43;56.43;101326.19;5045368;28;20049;-78
2022/10/13 04:09:48;;;;;;;8.23;4.90;;;;;;;18.36;56.36;101333.13;5043767;28;20602;-81
2022/10/13 04:12:17;;;;;;;9.52;4.35;;;;;;;18.31;57.59;101328.75;5038579;28;20205;-77
2022/10/13 04:14:46;;;;;;;17.70;5.40;;;;;;;18.23;58.09;101330.44;5033983;28;20115;-77
2022/10/13 04:17:16;;;;;;;10.80;4.13;;;;;;;18.17;57.10;101326.03;5038619;28;20055;-77
2022/10/13 04:19:45;;;;;;;16.63;5.28;;;;;;;18.10;58.22;101325.13;5041974;28;20050;-79
2022/10/13 04:22:13;;;;;;;13.48;5.10;;;;;;;18.04;57.85;101327.66;5037882;28;20048;-81
2022/10/13 04:24:42;;;;;;;8.13;4.65;;;;;;;17.98;57.33;101332.84;5049499;28;20077;-83
2022/10/13 04:27:11;;;;;;;12.07;5.35;;;;;;;17.90;57.57;101331.94;5046220;28;20589;-82
2022/10/13 04:29:39;;;;;;;8.93;4.13;;;;;;;17.79;57.24;101324.81;5042895;28;20124;-83
2022/10/13 04:32:08;;;;;;;14.00;4.75;;;;;;;17.79;57.71;101340.50;5041973;28;20064;-82
2022/10/13 04:34:39;;;;;;;9.07;4.38;;;;;;;17.74;57.17;101344.84;5036834;28;20681;-80
2022/10/13 04:37:07;;;;;;;10.10;4.57;;;;;;;17.70;57.39;101344.78;5040099;28;20638;-84
2022/10/13 04:39:36;;;;;;;12.15;5.90;;;;;;;17.67;57.13;101350.00;5040786;28;20046;-77
2022/10/13 04:42:05;;;;;;;13.73;4.65;;;;;;;17.57;58.35;101346.44;5042905;28;20049;-78
2022/10/13 04:44:34;;;;;;;9.15;4.47;;;;;;;17.48;58.06;101344.59;5037987;28;20041;-80
2022/10/13 04:47:02;;;;;;;8.73;4.28;;;;;;;17.50;58.59;101357.66;5031396;28;20053;-77
2022/10/13 04:49:31;;;;;;;15.45;5.20;;;;;;;17.44;58.68;101353.25;5023828;28;20071;-78
2022/10/13 04:52:02;;;;;;;8.95;4.40;;;;;;;17.39;58.76;101362.81;5014882;28;20133;-75
2022/10/13 04:54:30;;;;;;;12.02;4.50;;;;;;;17.33;58.79;101360.97;5015574;28;20385;-74
2022/10/13 04:56:59;;;;;;;9.05;4.50;;;;;;;17.30;58.68;101366.19;5018011;28;20302;-77
2022/10/13 04:59:28;;;;;;;15.52;5.15;;;;;;;17.24;60.32;101360.88;5022247;28;20643;-75
2022/10/13 05:01:57;;;;;;;9.05;4.13;;;;;;;17.18;60.03;101358.22;5017900;28;20534;-77
2022/10/13 05:04:25;;;;;;;10.63;4.38;;;;;;;17.10;60.98;101363.31;5014743;28;20131;-76
2022/10/13 05:06:54;;;;;;;9.82;4.28;;;;;;;17.06;61.24;101361.53;5012536;28;20058;-77
2022/10/13 05:09:24;;;;;;;10.45;4.15;;;;;;;17.02;60.96;101362.38;5015648;28;20629;-78
2022/10/13 05:11:53;;;;;;;13.20;4.15;;;;;;;16.99;61.12;101369.28;5015472;28;20506;-74
2022/10/13 05:14:23;;;;;;;11.90;4.32;;;;;;;16.95;60.96;101368.38;5022493;28;20686;-73
2022/10/13 05:16:51;;;;;;;9.02;3.85;;;;;;;16.90;61.44;101376.13;5022331;28;20518;-75
2022/10/13 05:19:20;;;;;;;8.50;4.00;;;;;;;16.82;61.37;101375.16;5027937;28;20056;-76
2022/10/13 05:21:49;;;;;;;10.15;4.70;;;;;;;16.77;61.42;101374.19;5023934;28;20041;-74
2022/10/13 05:24:19;;;;;;;10.88;4.40;;;;;;;16.75;62.02;101376.78;5022481;28;20471;-76
2022/10/13 05:26:49;;;;;;;11.45;4.18;;;;;;;16.71;62.47;101372.34;5017161;28;20104;-74
2022/10/13 05:29:18;;;;;;;6.95;4.30;;;;;;;16.66;61.63;101374.03;5018070;28;20053;-73
2022/10/13 05:31:47;;;;;;;7.47;4.18;;;;;;;16.60;62.30;101375.69;5022524;28;20595;-73
2022/10/13 05:34:15;;;;;;;11.93;3.97;;;;;;;16.54;62.72;101372.13;5017928;28;20041;-73
2022/10/13 05:36:44;;;;;;;8.98;3.72;;;;;;;16.50;62.96;101383.38;5029041;28;20071;-73
2022/10/13 05:39:13;;;;;;;20.23;5.00;;;;;;;16.48;63.00;101386.81;5030539;28;20053;-73
2022/10/13 05:41:42;;;;;;;9.85;4.45;;;;;;;16.43;63.45;101378.91;5023226;28;20129;-74
2022/10/13 05:44:12;;;;;;;10.77;4.72;;;;;;;16.36;63.86;101379.69;5020880;28;20053;-74
2022/10/13 05:46:40;;;;;;;9.07;4.43;;;;;;;16.33;63.59;101384.84;5039363;28;20414;-73
2022/10/13 05:49:09;;;;;;;9.55;3.90;;;;;;;16.28;63.58;101381.28;5044751;28;20053;-73
2022/10/13 05:51:40;;;;;;;7.00;3.60;;;;;;;16.24;63.85;101382.97;5051796;28;20076;-75
2022/10/13 05:54:14;;;;;;;12.52;4.00;;;;;;;16.24;64.00;101387.31;5039006;28;20541;-75
2022/10/13 05:56:45;;;;;;;14.18;4.07;;;;;;;16.20;65.02;101391.63;5045280;28;20113;-75
2022/10/13 05:59:19;;;;;;;10.10;4.13;;;;;;;16.16;65.01;101383.72;5044583;28;20443;-74
2022/10/13 06:01:48;;;;;;;9.52;4.57;;;;;;;16.12;67.36;101390.59;5051910;28;20083;-74
2022/10/13 06:04:20;;;;;;;7.97;3.92;;;;;;;16.08;67.83;101389.69;5045471;28;20096;-74
2022/10/13 06:06:50;;;;;;;7.47;3.58;;;;;;;16.04;67.98;101390.47;5043564;28;20049;-72
2022/10/13 06:09:19;;;;;;;7.55;4.03;;;;;;;16.01;68.20;101390.44;5046752;28;20053;-73
2022/10/13 06:11:48;;;;;;;13.32;4.53;;;;;;;15.96;68.58;101389.44;5044676;28;20414;-72
2022/10/13 06:14:18;;;;;;;8.75;3.83;;;;;;;15.88;68.89;101397.16;5052655;28;20044;-73
2022/10/13 06:16:47;;;;;;;13.90;3.72;;;;;;;15.87;68.92;101391.91;5046942;28;20419;-73
2022/10/13 06:19:16;;;;;;;14.40;4.05;;;;;;;15.83;69.50;101390.09;5048834;28;20207;-76
2022/10/13 06:21:45;;;;;;;12.98;3.85;;;;;;;15.77;68.68;101401.28;5044984;28;20051;-72
2022/10/13 06:24:13;;;;;;;11.30;4.28;;;;;;;15.74;69.93;101392.56;5043629;28;20422;-74
2022/10/13 06:26:42;;;;;;;4.60;3.10;;;;;;;15.73;69.55;101398.59;5053889;28;20470;-75
2022/10/13 06:29:11;;;;;;;14.95;4.57;;;;;;;15.70;69.31;101389.88;5044735;28;20053;-75
2022/10/13 06:31:41;;;;;;;8.43;3.97;;;;;;;15.68;69.10;101388.03;5056180;28;20384;-74
2022/10/13 06:34:10;;;;;;;12.00;3.85;;;;;;;15.63;69.47;101387.97;5049972;28;20052;-72
2022/10/13 06:36:38;;;;;;;10.45;4.20;;;;;;;15.59;69.43;101387.88;5048996;28;20505;-74
2022/10/13 06:39:07;;;;;;;15.60;4.47;;;;;;;15.56;69.14;101387.81;5044671;28;20488;-77
2022/10/13 06:41:36;;;;;;;12.02;4.20;;;;;;;15.53;69.31;101388.66;5050093;28;20041;-76
2022/10/13 06:44:05;;;;;;;7.80;3.55;;;;;;;15.51;68.74;101387.75;5048642;28;20049;-77
2022/10/13 06:46:34;;;;;;;11.23;3.65;;;;;;;15.49;68.60;101392.03;5042093;27;20057;-77
2022/10/13 06:49:04;;;;;;;11.75;3.47;;;;;;;15.45;68.89;101388.47;5048012;28;20076;-76
2022/10/13 06:51:32;;;;;;;9.68;3.53;;;;;;;15.40;69.00;101389.25;5044258;28;20470;-77
2022/10/13 06:54:01;;;;;;;9.05;3.33;;;;;;;15.36;69.29;101393.50;5039990;28;20060;-75
2022/10/13 06:56:30;;;;;;;7.60;3.50;;;;;;;15.25;70.25;101395.91;5041312;28;20712;-75
2022/10/13 06:58:59;;;;;;;10.88;4.15;;;;;;;15.17;69.83;101389.66;5044521;28;20060;-75
2022/10/13 07:01:28;;;;;;;10.88;3.53;;;;;;;15.14;69.91;101389.63;5039164;28;20045;-75
2022/10/13 07:03:57;;;;;;;13.30;3.63;;;;;;;15.13;70.16;101398.25;5045705;28;20490;-75
2022/10/13 07:06:27;;;;;;;7.82;3.55;;;;;;;15.06;70.37;101393.78;5040705;28;20422;-71
2022/10/13 07:08:55;;;;;;;8.18;3.15;;;;;;;14.99;70.71;101391.88;5044309;28;20129;-71
2022/10/13 07:11:24;;;;;;;5.45;3.30;;;;;;;14.97;70.80;101393.56;5041897;28;20045;-72
2022/10/13 07:13:55;;;;;;;8.23;3.75;;;;;;;14.93;70.30;101399.56;5036900;28;20125;-72
2022/10/13 07:16:24;;;;;;;9.77;4.75;;;;;;;14.87;71.00;101403.78;5049919;28;20491;-72
2022/10/13 07:18:52;;;;;;;8.43;3.97;;;;;;;14.85;71.13;101399.41;5043918;28;20042;-71
2022/10/13 07:21:21;;;;;;;10.02;3.75;;;;;;;14.79;71.49;101394.91;5038388;28;20049;-71
2022/10/13 07:23:51;;;;;;;6.38;3.33;;;;;;;14.76;71.32;101392.25;5042566;28;20064;-71
2022/10/13 07:26:20;;;;;;;6.95;3.70;;;;;;;14.72;72.10;101387.81;5047390;28;20044;-71
2022/10/13 07:28:49;;;;;;;7.18;3.88;;;;;;;14.70;71.94;101393.84;5048528;28;20045;-71
2022/10/13 07:31:20;;;;;;;10.85;3.85;;;;;;;14.64;71.83;101390.25;5040153;28;20056;-72
2022/10/13 07:33:50;;;;;;;8.70;4.00;;;;;;;14.62;72.17;101391.06;5044116;28;20056;-72
2022/10/13 07:36:19;;;;;;;7.18;3.75;;;;;;;14.58;72.37;101389.22;5042775;28;20057;-71
2022/10/13 07:38:48;;;;;;;13.57;3.92;;;;;;;14.56;72.45;101388.31;5047800;28;20056;-71
2022/10/13 07:41:18;;;;;;;10.38;3.90;;;;;;;14.51;72.97;101385.56;5040102;28;20427;-71
2022/10/13 07:43:47;;;;;;;8.52;4.38;;;;;;;14.41;73.97;101378.41;5043285;28;20056;-71
2022/10/13 07:46:17;;;;;;;9.27;3.33;;;;;;;14.36;73.85;101380.88;5041068;28;20053;-71
2022/10/13 07:48:45;;;;;;;8.18;3.47;;;;;;;14.29;74.26;101376.34;5036273;28;20388;-72
2022/10/13 07:51:14;;;;;;;9.45;3.63;;;;;;;14.27;74.54;101382.38;5035022;28;20548;-71
2022/10/13 07:53:45;;;;;;;15.85;3.85;;;;;;;14.24;74.04;101383.16;5040859;28;20057;-71
2022/10/13 07:56:15;;;;;;;10.52;3.72;;;;;;;14.19;74.72;101388.28;5039283;28;20501;-72
2022/10/13 07:58:46;;;;;;;8.40;3.45;;;;;;;14.11;74.59;101386.31;5037527;28;20049;-72
2022/10/13 08:01:16;;;;;;;8.43;3.53;;;;;;;14.09;75.11;101398.41;5034889;28;20454;-72
2022/10/13 08:03:45;;;;;;;7.82;2.92;;;;;;;14.07;75.42;101400.09;5042051;28;20045;-72
2022/10/13 08:06:14;;;;;;;7.43;3.58;;;;;;;14.01;75.07;101396.47;5045239;28;20094;-71
2022/10/13 08:08:42;;;;;;;6.32;3.38;;;;;;;13.96;75.67;101395.50;5039924;28;20081;-72
2022/10/13 08:11:15;;;;;;;8.30;3.35;;;;;;;13.93;75.78;101398.03;5038664;28;20049;-71
2022/10/13 08:13:48;;;;;;;11.13;3.42;;;;;;;13.90;75.41;101402.25;5042612;28;20087;-72
2022/10/13 08:16:17;;;;;;;10.05;3.65;;;;;;;13.83;76.07;101406.41;5040558;28;20510;-72
2022/10/13 08:18:46;;;;;;;7.57;3.67;;;;;;;13.81;76.45;101406.41;5033953;28;20041;-71
2022/10/13 08:21:17;;;;;;;6.55;3.15;;;;;;;13.78;76.52;101403.69;5039441;28;20057;-71
2022/10/13 08:23:46;;;;;;;8.75;3.20;;;;;;;13.77;76.32;101404.53;5041986;28;20057;-71
2022/10/13 08:26:19;;;;;;;10.07;3.63;;;;;;;13.78;76.62;101402.81;5041716;28;20045;-71
2022/10/13 08:28:49;;;;;;;7.00;3.53;;;;;;;13.76;76.97;101405.38;5044934;28;20045;-71
2022/10/13 08:31:18;;;;;;;7.53;3.63;;;;;;;13.74;76.13;101406.16;5043937;28;20049;-71
2022/10/13 08:33:47;;;;;;;6.80;3.63;;;;;;;13.71;76.56;101406.09;5043453;28;20057;-71
2022/10/13 08:36:17;;;;;;;9.07;3.95;;;;;;;13.69;76.63;101407.78;5046377;28;20081;-72
2022/10/13 08:38:46;;;;;;;10.98;3.83;;;;;;;13.66;76.06;101412.91;5035600;28;20460;-72
2022/10/13 08:41:20;;;;;;;9.63;3.55;;;;;;;13.62;76.29;101406.72;5038447;28;20060;-72
2022/10/13 08:43:54;;;;;;;10.93;3.83;;;;;;;13.61;76.70;101411.03;5043689;28;20124;-72
2022/10/13 08:46:28;;;;;;;8.10;3.50;;;;;;;13.57;76.49;101398.78;5040642;28;20438;-72
2022/10/13 08:48:57;;;;;;;8.45;3.72;;;;;;;13.55;76.76;101402.19;5042035;28;20478;-72
2022/10/13 08:51:27;;;;;;;7.47;3.35;;;;;;;13.51;77.05;101398.63;5041497;28;20041;-72
2022/10/13 08:53:55;;;;;;;5.30;3.03;;;;;;;13.46;77.46;101399.34;5037287;28;20052;-72
2022/10/13 08:56:26;;;;;;;5.35;3.30;;;;;;;13.40;77.88;101395.75;5041155;28;20055;-72
2022/10/13 08:58:57;;;;;;;6.57;2.97;;;;;;;13.39;77.65;101398.28;5038562;28;20477;-72
2022/10/13 09:01:29;;;;;;;5.93;3.00;;;;;;;13.35;77.87;101393.81;5032433;28;20052;-72
2022/10/13 09:04:07;;;;;;;7.28;3.17;;;;;;;13.33;78.10;101393.81;5036956;28;21302;-72
2022/10/13 09:06:40;;;;;;;5.68;3.50;;;;;;;13.31;77.62;101391.97;5036620;28;20063;-72
2022/10/13 09:09:11;;;;;;;8.25;3.17;;;;;;;13.25;77.96;101390.06;5038347;28;20131;-72
2022/10/13 09:11:41;;;;;;;10.07;3.45;;;;;;;13.25;78.26;101384.00;5039149;28;20041;-72
2022/10/13 09:14:13;;;;;;;7.65;3.63;;;;;;;13.23;78.03;101383.06;5037138;28;20558;-72
2022/10/13 09:16:42;;;;;;;;;;;;;;;13.20;78.37;101386.47;5038901;28;20517;-73
2022/10/13 09:19:20;;;;;;;9.77;3.22;;;;;;;13.16;78.66;101380.28;5039301;28;19925;-72
2022/10/13 09:21:49;;;;;;;4.82;2.90;;;;;;;13.12;78.60;101387.94;5037168;28;20049;-73
2022/10/13 09:24:20;;;;;;;9.10;3.55;;;;;;;13.08;78.41;101387.00;5044581;28;20406;-71
2022/10/13 09:26:51;;;;;;;6.43;3.13;;;;;;;13.04;78.16;101387.72;5037481;28;20056;-72
2022/10/13 09:29:26;;;;;;;9.35;3.55;;;;;;;13.00;78.71;101394.53;5043788;28;20045;-72
2022/10/13 09:32:08;;;;;;;7.75;3.05;;;;;;;12.93;78.54;101387.41;5041875;28;20053;-71
2022/10/13 09:34:37;;;;;;;7.10;3.03;;;;;;;12.90;79.60;101397.72;5038200;28;20042;-72
2022/10/13 09:37:07;;;;;;;6.60;3.25;;;;;;;12.90;79.55;101391.63;5032351;28;20059;-72
2022/10/13 09:39:36;;;;;;;7.07;3.30;;;;;;;12.88;79.41;101393.31;5036473;28;20037;-71
2022/10/13 09:42:21;;;;;;;5.57;3.13;;;;;;;12.86;78.63;101394.97;5041088;28;20052;-71
2022/10/13 09:44:58;;;;;;;11.27;3.95;;;;;;;12.80;79.47;101395.66;5038081;28;20499;-72
2022/10/13 09:47:29;;;;;;;5.95;3.33;;;;;;;12.72;80.30;101392.81;5044124;28;20651;-72
2022/10/13 09:50:17;;;;;;;8.77;3.20;;;;;;;12.71;80.45;101390.16;5039618;28;20715;-72
2022/10/13 09:52:46;;;;;;;5.85;3.75;;;;;;;12.69;80.70;101387.56;5040833;28;20799;-72
2022/10/13 09:55:33;;;;;;;7.80;3.20;;;;;;;12.65;80.45;101385.69;5042738;28;20044;-72
2022/10/13 09:58:07;;;;;;;5.97;3.47;;;;;;;12.63;80.82;101392.53;5034413;28;20056;-72
2022/10/13 10:00:38;;;;;;;6.45;3.33;;;;;;;12.57;80.89;101381.97;5046562;28;20698;-72
2022/10/13 10:03:13;;;;;;;11.55;3.50;;;;;;;12.54;80.33;101381.88;5043321;28;20045;-72
2022/10/13 10:05:50;;;;;;;11.55;3.72;;;;;;;12.53;80.23;101391.38;5039978;28;20561;-72
2022/10/13 10:08:26;;;;;;;10.18;3.33;;;;;;;12.53;81.07;101395.69;5037097;28;20037;-72
2022/10/13 10:10:55;;;;;;;9.18;3.75;;;;;;;12.52;80.82;101393.91;5037502;28;20675;-72
2022/10/13 10:13:26;;;;;;;6.18;3.03;;;;;;;12.48;80.86;101392.06;5039272;28;20053;-72
2022/10/13 10:16:01;;;;;;;5.60;3.10;;;;;;;12.44;81.61;101391.09;5033804;28;20050;-72
2022/10/13 10:18:38;;;;;;;6.35;2.92;;;;;;;12.39;80.78;101386.56;5037924;28;20059;-72
2022/10/13 10:21:13;;;;;;;8.30;3.60;;;;;;;12.40;81.36;101398.72;5040732;28;20079;-72
2022/10/13 10:23:47;;;;;;;6.30;3.72;;;;;;;12.35;81.29;101391.66;5047572;28;20060;-71
2022/10/13 10:26:20;;;;;;;10.25;3.45;;;;;;;12.25;81.65;101394.78;5034774;28;20064;-71
2022/10/13 10:29:20;;;;;;;7.18;3.78;;;;;;;12.19;81.79;101397.19;5034799;28;20435;-71
2022/10/13 10:32:02;;;;;;;6.03;2.92;;;;;;;12.17;81.39;101391.06;5041136;28;20407;-72
2022/10/13 10:34:38;;;;;;;5.47;3.25;;;;;;;12.16;81.79;101389.28;5038077;28;20045;-72
2022/10/13 10:37:20;;;;;;;8.38;3.20;;;;;;;12.15;81.09;101383.22;5044647;28;20057;-72
2022/10/13 10:39:52;;;;;;;9.13;3.27;;;;;;;12.13;80.77;101394.38;5045326;28;20678;-71
2022/10/13 10:42:43;;;;;;;9.55;4.30;;;;;;;12.13;81.63;101395.25;5037996;28;20134;-72
2022/10/13 10:45:18;;;;;;;7.03;3.13;;;;;;;12.14;81.66;101394.44;5041899;28;20104;-72
2022/10/13 10:47:53;;;;;;;4.25;2.65;;;;;;;12.12;82.15;101390.03;5048918;27;20061;-72
2022/10/13 10:50:22;;;;;;;5.47;3.05;;;;;;;12.11;81.89;101390.84;5048189;28;20041;-71
2022/10/13 10:52:58;;;;;;;4.40;2.70;;;;;;;12.04;81.98;101386.28;5043958;28;20112;-71
2022/10/13 10:55:33;;;;;;;4.68;3.00;;;;;;;12.00;81.94;101389.59;5045515;28;20114;-71
2022/10/13 10:58:16;;;;;;;7.00;3.92;;;;;;;11.94;81.87;101383.41;5040925;28;20442;-72
2022/10/13 11:00:54;;;;;;;6.43;3.17;;;;;;;11.89;82.35;101387.53;5046976;28;20443;-72
2022/10/13 11:03:36;;;;;;;7.40;3.17;;;;;;;11.86;82.86;101369.25;5039667;28;20045;-72
2022/10/13 11:06:23;;;;;;;6.10;3.37;;;;;;;11.86;82.33;101377.00;5035866;28;20045;-72
2022/10/13 11:08:54;;;;;;;7.75;2.97;;;;;;;11.85;82.52;101379.59;5041631;28;20318;-71
2022/10/13 11:11:33;;;;;;;6.68;3.30;;;;;;;11.82;83.05;101377.75;5041900;28;20045;-72
2022/10/13 11:14:17;;;;;;;9.52;3.38;;;;;;;11.82;82.67;101375.19;5041595;28;20049;-72
2022/10/13 11:17:10;;;;;;;6.97;2.95;;;;;;;11.79;82.63;101377.63;5047557;28;20116;-72
2022/10/13 11:19:41;;;;;;;4.15;2.85;;;;;;;11.76;82.29;101372.34;5043202;28;20127;-72
2022/10/13 11:22:15;;;;;;;6.65;3.03;;;;;;;11.75;82.62;101380.97;5038335;28;20724;-72
2022/10/13 11:24:49;;;;;;;6.70;3.17;;;;;;;11.74;82.93;101376.59;5044775;28;20708;-70
2022/10/13 11:27:36;;;;;;;8.15;3.50;;;;;;;11.68;82.89;101378.97;5038653;28;20722;-72
2022/10/13 11:30:05;;;;;;;6.32;3.10;;;;;;;11.61;83.10;101377.00;5040452;28;20558;-72
2022/10/13 11:32:54;;;;;;;7.47;3.47;;;;;;;11.57;83.54;101370.84;5036938;28;20684;-72
2022/10/13 11:35:29;;;;;;;6.38;2.95;;;;;;;11.56;83.44;101368.19;5038840;28;20053;-70
2022/10/13 11:38:24;;;;;;;7.50;3.42;;;;;;;11.55;82.87;101377.69;5040449;28;20143;-71
2022/10/13 11:41:15;;;;;;;6.68;2.67;;;;;;;11.50;83.59;101374.94;5032057;28;20183;-71
2022/10/13 11:43:55;;;;;;;5.97;3.15;;;;;;;11.45;84.59;101376.47;5044381;28;20045;-70